createdAt,value
2022-10-08T00:01:36.535Z,95618.78
2022-10-08T00:04:04.790Z,95615.09
2022-10-08T00:06:33.728Z,95616.69
2022-10-08T00:09:04.538Z,95623.56
2022-10-08T00:11:34.701Z,95618.28
2022-10-08T00:14:03.151Z,95621.97
2022-10-08T00:16:34.776Z,95626.44
2022-10-08T00:19:05.570Z,95613.50
2022-10-08T00:21:35.580Z,95619.81
2022-10-08T00:24:05.452Z,95616.38
2022-10-08T00:26:41.096Z,95605.06
2022-10-08T00:29:09.796Z,95610.31
2022-10-08T00:31:42.136Z,95606.66
2022-10-08T00:34:12.004Z,95611.13
2022-10-08T00:36:42.075Z,95613.50
2022-10-08T00:39:12.799Z,95608.22
2022-10-08T00:41:41.251Z,95612.72
2022-10-08T00:44:50.872Z,95611.66
2022-10-08T00:47:25.692Z,95600.56
2022-10-08T00:49:57.536Z,95607.44
2022-10-08T00:52:28.952Z,95603.75
2022-10-08T00:54:58.231Z,95611.91
2022-10-08T00:57:28.884Z,95604.59
2022-10-08T00:59:57.669Z,95610.56
2022-10-08T01:02:27.045Z,95601.63
2022-10-08T01:04:55.102Z,95599.47
2022-10-08T01:07:27.638Z,95602.72
2022-10-08T01:10:02.491Z,95594.34
2022-10-08T01:12:41.643Z,95590.69
2022-10-08T01:15:23.464Z,95596.78
2022-10-08T01:18:00.620Z,95579.34
2022-10-08T01:20:55.430Z,95581.28
2022-10-08T01:24:11.953Z,95579.69
2022-10-08T01:26:56.126Z,95588.63
2022-10-08T01:29:31.008Z,95588.63
2022-10-08T01:32:04.366Z,95591.16
2022-10-08T01:34:37.683Z,95581.66
2022-10-08T01:37:08.347Z,95586.41
2022-10-08T01:39:40.316Z,95580.09
2022-10-08T01:42:11.832Z,95571.13
2022-10-08T01:44:46.381Z,95566.41
2022-10-08T01:47:19.848Z,95559.53
2022-10-08T01:49:52.627Z,95555.41
2022-10-08T01:52:25.373Z,95561.13
2022-10-08T01:54:56.475Z,95555.41
2022-10-08T01:57:25.227Z,95541.63
2022-10-08T01:59:58.428Z,95540.03
2022-10-08T02:02:27.636Z,95541.09
2022-10-08T02:04:56.953Z,95540.03
2022-10-08T02:07:29.053Z,95540.53
2022-10-08T02:10:05.144Z,95533.88
2022-10-08T02:12:33.187Z,95540.47
2022-10-08T02:15:04.885Z,95527.53
2022-10-08T02:17:40.560Z,95535.19
2022-10-08T02:20:18.308Z,95536.78
2022-10-08T02:22:54.117Z,95531.50
2022-10-08T02:25:27.735Z,95530.41
2022-10-08T02:28:04.357Z,95534.97
2022-10-08T02:30:42.062Z,95532.66
2022-10-08T02:33:15.733Z,95546.56
2022-10-08T02:35:49.232Z,95529.47
2022-10-08T02:38:22.389Z,95524.00
2022-10-08T02:40:53.917Z,95535.97
2022-10-08T02:43:27.670Z,95528.09
2022-10-08T02:46:01.512Z,95526.00
2022-10-08T02:48:32.448Z,95536.06
2022-10-08T02:51:06.281Z,95539.25
2022-10-08T02:53:37.889Z,95534.81
2022-10-08T02:56:12.874Z,95533.78
2022-10-08T02:58:41.732Z,95531.38
2022-10-08T03:01:17.096Z,95535.34
2022-10-08T03:03:50.108Z,95538.25
2022-10-08T03:06:19.367Z,95538.25
2022-10-08T03:08:50.207Z,95536.66
2022-10-08T03:11:18.508Z,95536.97
2022-10-08T03:13:49.544Z,95537.53
2022-10-08T03:16:23.652Z,95537.53
2022-10-08T03:18:53.542Z,95537.06
2022-10-08T03:21:21.794Z,95534.16
2022-10-08T03:23:49.751Z,95538.16
2022-10-08T03:26:18.919Z,95533.88
2022-10-08T03:28:47.150Z,95541.44
2022-10-08T03:31:15.263Z,95539.13
2022-10-08T03:33:44.666Z,95545.38
2022-10-08T03:36:12.825Z,95546.97
2022-10-08T03:38:40.843Z,95539.13
2022-10-08T03:41:10.346Z,95542.31
2022-10-08T03:43:38.348Z,95542.81
2022-10-08T03:46:07.003Z,95552.84
2022-10-08T03:48:35.418Z,95556.03
2022-10-08T03:51:09.371Z,95549.72
2022-10-08T03:53:39.506Z,95548.69
2022-10-08T03:56:09.801Z,95546.59
2022-10-08T03:58:38.564Z,95543.41
2022-10-08T04:01:08.807Z,95547.09
2022-10-08T04:03:36.930Z,95543.41
2022-10-08T04:06:06.811Z,95547.88
2022-10-08T04:08:35.646Z,95553.94
2022-10-08T04:11:04.929Z,95547.41
2022-10-08T04:13:33.216Z,95542.91
2022-10-08T04:16:02.602Z,95542.91
2022-10-08T04:18:30.663Z,95541.31
2022-10-08T04:20:59.781Z,95541.31
2022-10-08T04:23:29.995Z,95536.59
2022-10-08T04:25:57.958Z,95538.75
2022-10-08T04:28:26.192Z,95529.78
2022-10-08T04:30:58.685Z,95531.88
2022-10-08T04:33:27.229Z,95527.09
2022-10-08T04:35:59.852Z,95539.25
2022-10-08T04:38:30.064Z,95535.56
2022-10-08T04:41:06.430Z,95539.25
2022-10-08T04:43:34.789Z,95541.63
2022-10-08T04:46:02.866Z,95541.31
2022-10-08T04:48:31.501Z,95536.31
2022-10-08T04:51:04.099Z,95544.63
2022-10-08T04:53:35.962Z,95538.91
2022-10-08T04:56:12.643Z,95540.00
2022-10-08T04:58:41.099Z,95542.69
2022-10-08T05:01:11.308Z,95541.69
2022-10-08T05:03:40.126Z,95541.69
2022-10-08T05:06:08.695Z,95542.25
2022-10-08T05:08:39.017Z,95532.66
2022-10-08T05:11:07.376Z,95536.81
2022-10-08T05:13:35.952Z,95528.97
2022-10-08T05:16:05.683Z,95533.75
2022-10-08T05:18:34.164Z,95525.34
2022-10-08T05:21:05.915Z,95532.75
2022-10-08T05:23:34.789Z,95539.59
2022-10-08T05:26:12.672Z,95532.75
2022-10-08T05:28:40.767Z,95538.00
2022-10-08T05:31:08.980Z,95538.00
2022-10-08T05:33:37.042Z,95532.75
2022-10-08T05:36:06.668Z,95536.97
2022-10-08T05:38:35.284Z,95544.88
2022-10-08T05:41:13.057Z,95545.38
2022-10-08T05:43:41.544Z,95550.84
2022-10-08T05:46:10.251Z,95549.44
2022-10-08T05:48:39.021Z,95559.47
2022-10-08T05:51:08.459Z,95550.28
2022-10-08T05:53:37.716Z,95562.16
2022-10-08T05:56:08.341Z,95560.56
2022-10-08T05:58:39.633Z,95558.97
2022-10-08T06:01:09.992Z,95555.31
2022-10-08T06:03:38.010Z,95560.06
2022-10-08T06:06:08.181Z,95572.50
2022-10-08T06:08:37.272Z,95569.31
2022-10-08T06:11:06.856Z,95578.03
2022-10-08T06:13:35.437Z,95570.63
2022-10-08T06:16:07.560Z,95570.31
2022-10-08T06:18:38.467Z,95571.09
2022-10-08T06:21:08.656Z,95575.09
2022-10-08T06:23:37.271Z,95566.94
2022-10-08T06:26:05.985Z,95568.03
2022-10-08T06:28:35.118Z,95574.44
2022-10-08T06:31:05.513Z,95574.72
2022-10-08T06:33:33.890Z,95570.25
2022-10-08T06:36:04.487Z,95580.28
2022-10-08T06:38:32.712Z,95574.53
2022-10-08T06:41:01.082Z,95587.47
2022-10-08T06:43:29.101Z,95588.25
2022-10-08T06:45:59.994Z,95586.41
2022-10-08T06:48:29.344Z,95585.91
2022-10-08T06:51:00.947Z,95586.16
2022-10-08T06:53:29.392Z,95588.25
2022-10-08T06:55:58.258Z,95587.72
2022-10-08T06:58:26.287Z,95594.38
2022-10-08T07:01:03.427Z,95591.28
2022-10-08T07:03:33.025Z,95596.09
2022-10-08T07:06:02.259Z,95598.28
2022-10-08T07:08:31.094Z,95602.53
2022-10-08T07:11:05.388Z,95592.22
2022-10-08T07:13:33.519Z,95598.84
2022-10-08T07:16:06.303Z,95593.66
2022-10-08T07:18:36.988Z,95585.81
2022-10-08T07:21:05.829Z,95603.50
2022-10-08T07:23:33.815Z,95602.22
2022-10-08T07:26:04.089Z,95599.31
2022-10-08T07:28:35.344Z,95602.50
2022-10-08T07:31:06.980Z,95596.44
2022-10-08T07:33:36.387Z,95597.59
2022-10-08T07:36:09.464Z,95591.81
2022-10-08T07:38:37.610Z,95603.41
2022-10-08T07:41:05.880Z,95595.97
2022-10-08T07:43:34.121Z,95595.50
2022-10-08T07:46:02.531Z,95598.97
2022-10-08T07:48:34.079Z,95600.88
2022-10-08T07:51:09.688Z,95604.59
2022-10-08T07:53:37.775Z,95613.63
2022-10-08T07:56:05.911Z,95599.78
2022-10-08T07:58:34.380Z,95605.78
2022-10-08T08:01:04.284Z,95604.56
2022-10-08T08:03:32.448Z,95609.72
2022-10-08T08:06:02.403Z,95601.38
2022-10-08T08:08:32.414Z,95611.47
2022-10-08T08:11:01.416Z,95617.13
2022-10-08T08:13:34.411Z,95629.00
2022-10-08T08:16:07.348Z,95635.63
2022-10-08T08:18:37.699Z,95633.84
2022-10-08T08:21:08.065Z,95634.38
2022-10-08T08:23:38.886Z,95641.34
2022-10-08T08:26:08.425Z,95639.78
2022-10-08T08:28:36.953Z,95643.09
2022-10-08T08:31:09.925Z,95653.31
2022-10-08T08:33:38.189Z,95645.97
2022-10-08T08:36:06.564Z,95648.22
2022-10-08T08:38:37.338Z,95650.97
2022-10-08T08:41:20.343Z,95655.88
2022-10-08T08:43:49.117Z,95653.31
2022-10-08T08:46:22.239Z,95657.28
2022-10-08T08:48:55.103Z,95667.06
2022-10-08T08:51:23.222Z,95663.78
2022-10-08T08:53:52.791Z,95662.47
2022-10-08T08:56:25.250Z,95669.63
2022-10-08T08:59:00.088Z,95665.97
2022-10-08T09:01:34.613Z,95664.50
2022-10-08T09:04:08.587Z,95666.66
2022-10-08T09:06:39.200Z,95666.72
2022-10-08T09:09:20.866Z,95671.81
2022-10-08T09:11:49.424Z,95676.34
2022-10-08T09:14:33.091Z,95675.84
2022-10-08T09:17:10.169Z,95670.56
2022-10-08T09:19:40.352Z,95675.31
2022-10-08T09:22:21.978Z,95681.16
2022-10-08T09:24:55.931Z,95669.84
2022-10-08T09:27:23.909Z,95677.50
2022-10-08T09:29:51.867Z,95677.03
2022-10-08T09:32:21.876Z,95677.03
2022-10-08T09:34:50.368Z,95677.03
2022-10-08T09:37:26.446Z,95678.53
2022-10-08T09:40:18.608Z,95681.19
2022-10-08T09:42:47.123Z,95674.84
2022-10-08T09:45:34.585Z,95678.63
2022-10-08T09:48:20.490Z,95681.78
2022-10-08T09:50:53.019Z,95687.63
2022-10-08T09:53:22.791Z,95673.38
2022-10-08T09:55:57.014Z,95671.81
2022-10-08T09:58:25.547Z,95675.00
2022-10-08T10:00:59.619Z,95672.91
2022-10-08T10:03:28.644Z,95679.78
2022-10-08T10:05:59.099Z,95669.78
2022-10-08T10:08:51.815Z,95671.84
2022-10-08T10:11:27.551Z,95673.41
2022-10-08T10:13:57.231Z,95676.59
2022-10-08T10:16:28.183Z,95675.28
2022-10-08T10:19:00.162Z,95665.06
2022-10-08T10:21:37.981Z,95671.38
2022-10-08T10:24:22.659Z,95674.84
2022-10-08T10:26:56.905Z,95667.94
2022-10-08T10:29:29.723Z,95667.72
2022-10-08T10:32:05.584Z,95667.94
2022-10-08T10:34:38.576Z,95662.91
2022-10-08T10:37:13.595Z,95675.50
2022-10-08T10:39:47.875Z,95672.22
2022-10-08T10:42:22.287Z,95673.16
2022-10-08T10:44:53.829Z,95677.00
2022-10-08T10:47:28.267Z,95668.25
2022-10-08T10:49:58.787Z,95670.44
2022-10-08T10:52:50.924Z,95667.75
2022-10-08T10:55:24.416Z,95666.66
2022-10-08T10:58:10.821Z,95662.41
2022-10-08T11:00:48.459Z,95657.13
2022-10-08T11:03:26.590Z,95660.81
2022-10-08T11:06:03.903Z,95655.91
2022-10-08T11:08:40.800Z,95662.78
2022-10-08T11:11:22.199Z,95664.38
2022-10-08T11:14:05.337Z,95657.69
2022-10-08T11:16:46.630Z,95657.53
2022-10-08T11:19:27.871Z,95653.81
2022-10-08T11:22:04.811Z,95659.63
2022-10-08T11:24:48.692Z,95660.69
2022-10-08T11:27:23.523Z,95652.59
2022-10-08T11:29:59.428Z,95656.63
2022-10-08T11:32:29.880Z,95654.53
2022-10-08T11:35:14.496Z,95642.19
2022-10-08T11:37:48.678Z,95643.84
2022-10-08T11:40:23.842Z,95647.63
2022-10-08T11:43:01.942Z,95643.69
2022-10-08T11:45:37.986Z,95642.88
2022-10-08T11:48:26.674Z,95639.50
2022-10-08T11:50:54.731Z,95642.47
2022-10-08T11:53:23.459Z,95639.38
2022-10-08T11:55:55.128Z,95636.25
2022-10-08T11:58:30.552Z,95633.19
2022-10-08T12:01:06.294Z,95630.09
2022-10-08T12:03:37.678Z,95624.00
2022-10-08T12:06:17.991Z,95626.97
2022-10-08T12:08:54.884Z,95622.84
2022-10-08T12:11:48.134Z,95626.00
2022-10-08T12:14:47.406Z,95620.75
2022-10-08T12:17:17.749Z,95619.19
2022-10-08T12:20:02.652Z,95612.09
2022-10-08T12:22:45.745Z,95607.13
2022-10-08T12:26:02.796Z,95605.50
2022-10-08T12:28:50.603Z,95600.22
2022-10-08T12:31:35.706Z,95592.56
2022-10-08T12:34:15.852Z,95600.22
2022-10-08T12:36:59.339Z,95598.19
2022-10-08T12:39:37.214Z,95590.81
2022-10-08T12:42:16.850Z,95590.28
2022-10-08T12:44:56.061Z,95582.84
2022-10-08T12:47:35.813Z,95574.41
2022-10-08T12:50:16.950Z,95574.31
2022-10-08T12:52:45.076Z,95574.91
2022-10-08T12:55:18.438Z,95578.13
2022-10-08T12:57:50.388Z,95580.22
2022-10-08T13:00:23.341Z,95570.69
2022-10-08T13:03:01.945Z,95568.34
2022-10-08T13:05:33.189Z,95574.44
2022-10-08T13:08:19.205Z,95571.84
2022-10-08T13:10:47.740Z,95564.94
2022-10-08T13:13:36.326Z,95565.94
2022-10-08T13:16:05.821Z,95559.09
2022-10-08T13:18:35.455Z,95553.28
2022-10-08T13:21:07.909Z,95557.06
2022-10-08T13:23:37.640Z,95549.16
2022-10-08T13:26:05.589Z,95551.28
2022-10-08T13:28:59.233Z,95550.22
2022-10-08T13:31:24.772Z,95552.56
2022-10-08T13:33:52.969Z,95544.91
2022-10-08T13:36:23.885Z,95541.53
2022-10-08T13:38:52.046Z,95543.38
2022-10-08T13:41:24.158Z,95550.81
2022-10-08T13:43:52.463Z,95545.25
2022-10-08T13:46:20.468Z,95532.84
2022-10-08T13:48:48.596Z,95536.00
2022-10-08T13:51:16.696Z,95536.56
2022-10-08T13:53:46.126Z,95530.75
2022-10-08T13:56:14.265Z,95528.06
2022-10-08T13:58:42.242Z,95531.22
2022-10-08T14:01:10.305Z,95535.94
2022-10-08T14:03:38.313Z,95534.31
2022-10-08T14:06:06.617Z,95532.75
2022-10-08T14:08:36.033Z,95531.72
2022-10-08T14:11:05.408Z,95530.19
2022-10-08T14:13:33.347Z,95528.06
2022-10-08T14:16:01.402Z,95534.41
2022-10-08T14:18:29.360Z,95536.00
2022-10-08T14:20:57.339Z,95530.44
2022-10-08T14:23:25.519Z,95528.06
2022-10-08T14:25:54.520Z,95533.09
2022-10-08T14:28:23.881Z,95533.63
2022-10-08T14:30:51.967Z,95534.41
2022-10-08T14:33:19.977Z,95532.31
2022-10-08T14:35:51.580Z,95532.03
2022-10-08T14:38:19.578Z,95529.66
2022-10-08T14:40:47.514Z,95534.94
2022-10-08T14:43:15.481Z,95534.41
2022-10-08T14:45:44.879Z,95530.19
2022-10-08T14:48:12.885Z,95534.94
2022-10-08T14:50:40.872Z,95528.59
2022-10-08T14:53:08.824Z,95521.72
2022-10-08T14:55:54.510Z,95530.72
2022-10-08T14:58:25.183Z,95520.59
2022-10-08T15:00:58.625Z,95520.59
2022-10-08T15:03:26.884Z,95519.81
2022-10-08T15:05:59.065Z,95514.25
2022-10-08T15:08:27.244Z,95510.56
2022-10-08T15:10:55.174Z,95516.63
2022-10-08T15:13:23.203Z,95512.94
2022-10-08T15:15:51.215Z,95510.56
2022-10-08T15:18:20.549Z,95516.38
2022-10-08T15:20:54.947Z,95517.97
2022-10-08T15:23:22.971Z,95517.97
2022-10-08T15:25:56.896Z,95510.03
2022-10-08T15:28:25.745Z,95513.19
2022-10-08T15:31:02.368Z,95507.91
2022-10-08T15:33:31.824Z,95505.28
2022-10-08T15:35:59.768Z,95505.22
2022-10-08T15:38:27.787Z,95514.19
2022-10-08T15:41:03.180Z,95516.34
2022-10-08T15:43:34.998Z,95513.66
2022-10-08T15:46:10.956Z,95517.34
2022-10-08T15:48:40.541Z,95520.72
2022-10-08T15:51:09.226Z,95521.47
2022-10-08T15:53:38.403Z,95521.38
2022-10-08T15:56:07.314Z,95517.94
2022-10-08T15:58:49.936Z,95516.41
2022-10-08T16:01:20.185Z,95520.09
2022-10-08T16:03:51.219Z,95523.56
2022-10-08T16:06:21.069Z,95517.75
2022-10-08T16:08:49.266Z,95514.84
2022-10-08T16:11:19.605Z,95513.56
2022-10-08T16:13:50.299Z,95524.69
2022-10-08T16:16:18.959Z,95519.91
2022-10-08T16:18:51.210Z,95514.69
2022-10-08T16:21:20.792Z,95518.91
2022-10-08T16:23:49.385Z,95521.56
2022-10-08T16:26:21.282Z,95524.63
2022-10-08T16:28:50.601Z,95513.56
2022-10-08T16:31:19.151Z,95520.44
2022-10-08T16:33:48.003Z,95517.25
2022-10-08T16:36:17.385Z,95518.28
2022-10-08T16:38:45.320Z,95521.19
2022-10-08T16:41:15.472Z,95518.81
2022-10-08T16:43:46.171Z,95519.28
2022-10-08T16:46:16.100Z,95521.38
2022-10-08T16:48:44.847Z,95520.28
2022-10-08T16:51:13.108Z,95515.53
2022-10-08T16:53:42.561Z,95523.41
2022-10-08T16:56:10.516Z,95517.53
2022-10-08T16:58:38.453Z,95519.66
2022-10-08T17:01:08.719Z,95511.19
2022-10-08T17:03:37.633Z,95517.53
2022-10-08T17:06:06.408Z,95517.25
2022-10-08T17:08:34.378Z,95519.81
2022-10-08T17:11:06.545Z,95525.31
2022-10-08T17:13:34.789Z,95526.31
2022-10-08T17:16:07.315Z,95529.91
2022-10-08T17:18:35.624Z,95533.00
2022-10-08T17:21:04.494Z,95535.06
2022-10-08T17:23:36.818Z,95530.34
2022-10-08T17:26:08.459Z,95535.78
2022-10-08T17:28:39.695Z,95533.72
2022-10-08T17:31:09.318Z,95532.44
2022-10-08T17:33:37.468Z,95532.44
2022-10-08T17:36:07.676Z,95543.53
2022-10-08T17:38:37.291Z,95533.72
2022-10-08T17:41:13.219Z,95538.69
2022-10-08T17:43:42.211Z,95535.22
2022-10-08T17:46:11.736Z,95533.91
2022-10-08T17:48:39.974Z,95536.50
2022-10-08T17:51:09.124Z,95541.88
2022-10-08T17:53:37.097Z,95544.09
2022-10-08T17:56:07.705Z,95543.38
2022-10-08T17:58:37.623Z,95545.22
2022-10-08T18:01:08.974Z,95551.81
2022-10-08T18:03:38.388Z,95551.53
2022-10-08T18:06:07.169Z,95549.66
2022-10-08T18:08:35.319Z,95547.56
2022-10-08T18:11:04.909Z,95547.56
2022-10-08T18:13:33.898Z,95551.59
2022-10-08T18:16:07.985Z,95555.56
2022-10-08T18:18:36.339Z,95548.91
2022-10-08T18:21:05.739Z,95552.47
2022-10-08T18:23:35.668Z,95548.78
2022-10-08T18:26:17.833Z,95551.38
2022-10-08T18:28:47.086Z,95556.03
2022-10-08T18:31:17.689Z,95562.28
2022-10-08T18:33:48.233Z,95557.50
2022-10-08T18:36:18.646Z,95560.69
2022-10-08T18:38:48.897Z,95560.22
2022-10-08T18:41:19.091Z,95554.81
2022-10-08T18:43:49.031Z,95556.53
2022-10-08T18:46:20.177Z,95564.78
2022-10-08T18:48:48.715Z,95553.94
2022-10-08T18:51:18.881Z,95565.59
2022-10-08T18:53:47.368Z,95556.03
2022-10-08T18:56:17.830Z,95564.00
2022-10-08T18:58:46.921Z,95564.84
2022-10-08T19:01:28.961Z,95562.97
2022-10-08T19:03:59.339Z,95555.31
2022-10-08T19:06:30.972Z,95558.69
2022-10-08T19:09:00.795Z,95552.63
2022-10-08T19:11:33.585Z,95557.69
2022-10-08T19:14:02.139Z,95564.75
2022-10-08T19:16:32.183Z,95558.97
2022-10-08T19:19:03.392Z,95564.75
2022-10-08T19:21:32.757Z,95562.16
2022-10-08T19:24:01.619Z,95560.13
2022-10-08T19:26:31.037Z,95565.41
2022-10-08T19:28:59.744Z,95566.44
2022-10-08T19:31:30.180Z,95567.72
2022-10-08T19:34:00.979Z,95564.06
2022-10-08T19:36:31.910Z,95562.16
2022-10-08T19:39:02.106Z,95570.63
2022-10-08T19:41:30.955Z,95568.97
2022-10-08T19:44:00.327Z,95571.28
2022-10-08T19:46:28.740Z,95575.75
2022-10-08T19:49:00.457Z,95559.88
2022-10-08T19:51:29.900Z,95564.59
2022-10-08T19:53:58.706Z,95574.41
2022-10-08T19:56:27.028Z,95570.66
2022-10-08T19:58:55.839Z,95570.34
2022-10-08T20:01:26.245Z,95563.50
2022-10-08T20:03:55.974Z,95569.06
2022-10-08T20:06:26.519Z,95567.66
2022-10-08T20:08:55.592Z,95574.94
2022-10-08T20:11:24.217Z,95575.50
2022-10-08T20:13:54.037Z,95570.53
2022-10-08T20:16:24.413Z,95575.38
2022-10-08T20:18:54.913Z,95579.91
2022-10-08T20:21:23.788Z,95581.50
2022-10-08T20:23:53.146Z,95581.03
2022-10-08T20:26:23.313Z,95573.53
2022-10-08T20:28:54.013Z,95572.19
2022-10-08T20:31:24.383Z,95579.97
2022-10-08T20:33:57.761Z,95575.50
2022-10-08T20:36:26.448Z,95575.50
2022-10-08T20:38:56.317Z,95578.69
2022-10-08T20:41:30.400Z,95578.19
2022-10-08T20:44:02.426Z,95580.34
2022-10-08T20:46:30.890Z,95580.28
2022-10-08T20:48:59.187Z,95586.50
2022-10-08T20:51:28.765Z,95578.69
2022-10-08T20:53:59.866Z,95577.56
2022-10-08T20:56:30.043Z,95577.91
2022-10-08T20:58:58.791Z,95579.50
2022-10-08T21:01:28.647Z,95582.69
2022-10-08T21:03:57.377Z,95583.31
2022-10-08T21:06:27.458Z,95589.22
2022-10-08T21:08:58.900Z,95585.03
2022-10-08T21:11:28.905Z,95585.34
2022-10-08T21:13:57.710Z,95586.63
2022-10-08T21:16:27.953Z,95583.44
2022-10-08T21:18:57.764Z,95589.22
2022-10-08T21:21:26.863Z,95592.25
2022-10-08T21:23:54.882Z,95592.25
2022-10-08T21:26:25.674Z,95586.50
2022-10-08T21:28:55.896Z,95586.97
2022-10-08T21:31:25.130Z,95585.38
2022-10-08T21:33:54.515Z,95581.72
2022-10-08T21:36:24.501Z,95584.88
2022-10-08T21:38:52.681Z,95578.53
2022-10-08T21:41:22.776Z,95588.31
2022-10-08T21:43:53.904Z,95585.38
2022-10-08T21:46:23.723Z,95586.91
2022-10-08T21:48:55.083Z,95583.66
2022-10-08T21:51:23.603Z,95588.09
2022-10-08T21:53:53.120Z,95586.56
2022-10-08T21:56:23.176Z,95582.66
2022-10-08T21:58:54.118Z,95593.19
2022-10-08T22:01:25.474Z,95588.16
2022-10-08T22:03:55.354Z,95581.06
2022-10-08T22:06:23.748Z,95584.75
2022-10-08T22:08:52.672Z,95581.81
2022-10-08T22:11:21.580Z,95581.06
2022-10-08T22:13:50.055Z,95578.00
2022-10-08T22:16:21.595Z,95581.25
2022-10-08T22:18:50.194Z,95582.34
2022-10-08T22:21:20.239Z,95583.47
2022-10-08T22:23:49.016Z,95567.22
2022-10-08T22:26:19.348Z,95568.00
2022-10-08T22:28:47.668Z,95570.97
2022-10-08T22:31:17.353Z,95568.34
2022-10-08T22:33:47.163Z,95571.03
2022-10-08T22:36:17.207Z,95569.63
2022-10-08T22:38:46.056Z,95565.63
2022-10-08T22:41:16.354Z,95571.03
2022-10-08T22:43:45.080Z,95561.47
2022-10-08T22:46:15.467Z,95559.41
2022-10-08T22:48:43.544Z,95561.16
2022-10-08T22:51:15.261Z,95562.59
2022-10-08T22:53:44.340Z,95564.50
2022-10-08T22:56:14.992Z,95558.94
2022-10-08T22:58:43.257Z,95566.59
2022-10-08T23:01:13.358Z,95557.41
2022-10-08T23:03:42.077Z,95566.41
2022-10-08T23:06:15.168Z,95564.97
2022-10-08T23:08:43.648Z,95560.84
2022-10-08T23:11:11.883Z,95559.34
2022-10-08T23:13:39.901Z,95565.78
2022-10-08T23:16:09.836Z,95560.84
2022-10-08T23:18:39.555Z,95559.59
2022-10-08T23:21:09.228Z,95564.03
2022-10-08T23:23:38.708Z,95563.88
2022-10-08T23:26:08.830Z,95558.75
2022-10-08T23:28:38.250Z,95554.44
2022-10-08T23:31:08.424Z,95551.41
2022-10-08T23:33:37.989Z,95549.28
2022-10-08T23:36:06.779Z,95552.09
2022-10-08T23:38:36.369Z,95546.91
2022-10-08T23:41:09.298Z,95543.63
2022-10-08T23:43:38.721Z,95540.91
2022-10-08T23:46:08.324Z,95541.31
2022-10-08T23:48:36.493Z,95534.38
2022-10-08T23:51:05.119Z,95535.50
2022-10-08T23:53:33.569Z,95544.41
2022-10-08T23:56:01.774Z,95537.38
2022-10-08T23:58:31.412Z,95539.03
